Weather at Naivasha Airport

Public forecast

Using degrees Celsius for public forecast. Weather courtesy of forecast.io.

Closest aviation weather report (METAR) to Naivasha Airport

Closest report is Nakuru Airport, 33.7 nm (62.4 km) NNW.

2024/05/30 16:00 (retrieved 1 hour ago)

HKNK 301600Z 36005KT 9999 FEW022 22/09

Closest aviation forecast (TAF) to Naivasha Airport

Closest forecast is Nairobi Wilson Airport, 39.4 nm (72.9 km) SE.

2024/05/30 12:18 (retrieved 5 hours ago)

TAF HKNW 301100Z 3012/3112 18010KT 9999 BKN025 BECMG 3020/3023 VRB02KT BKN020 BECMG 3108/3111 16010KT BKN025